world map with GOG marked

GOG - Airport

This information may not be accurate or current and is not valid for navigation or flight planning. No warranty of fitness for any purpose is made or implied.

flag of Namibia

Donate via PayPal

Additional information is available on the NEW Great Circle Mapper

Location
City:  Gobabis, Omaheke, Namibia
ICAO / IATA:FYGB / GOG

Details
Type:Airport (Aerodrome, Airfield)
Latitude:22°30'17"S (-22.504718)
Longitude:18°58'29"E (18.974722)
Elevation:4729 ft (1441 m)
Runways:unknown number
Longest:7415 ft (2260 m)

Time
Timezone:UTC+2 (DST+4)
Local Time:

Weather
METAR:FYGB  041400Z AUTO 25006KT //// // ////// 37/06 Q1021

Related Locations
Nearby:
Farthest:BKH: 12358 mi / 19888 km
Kekaha [Barking Sands Pacific Missile Range Facility (PMRF) Airport], Kauai, HI, US

Find:

   beyond  
but within

Other Information
Maps:
Sources:

  


 


Great Circle Mapper   Great Circle Mapper
Great Circle Mapper FAQ   Great Circle Mapper FAQ
  Karl's Home Page
KLSē   KLSē Home
   GC on Facebook
Airlines of the World   Airlines of the World
Donate via PayPal


Copyright © 2004-2019, Karl L. Swartz. All rights reserved.
All trademarks mentioned herein belong to their respective owners.

Please see credits for attribution and copyright information.

Karl Swartz <karl@kls2.com>
  Powered by FreeBSD
Valid HTML 4.01!
Labeled with ICRA
hCard Microformat
Geo Microformat